Terminal Aerodrome Forecast
Issued by NWS

Current Version | Previous Version | Text Only | Print | Product List | Glossary On
Versions: 1 2 3 4 5 6 7 8 9 10 11 12 13 14 15
000
FTUS41 KLWX 011724
TAFMTN
TAF
KMTN 011724Z 0118/0218 14010KT P6SM BKN050 BKN100
     FM011900 15010KT P6SM VCTS BKN050CB BKN100
     FM012000 VRB12KT 5SM -TSRA OVC050CB
     FM012300 15008KT P6SM BKN050 BKN100
     FM020100 VRB04KT P6SM SCT050 SCT100
     FM020400 33006KT P6SM SCT200
     FM021200 33008G16KT P6SM SCT200=

USA.gov is the U.S. government's official web portal to all federal, state and local government web resources and services.